Time;durP1;ratioP1;P1;durP2;ratioP2;P2;SDS_P1;SDS_P2;PMS_P1;PMS_P2;Temp;Humidity;BMP_temperature;BMP_pressure;BME280_temperature;BME280_humidity;BME280_pressure;Samples;Min_cycle;Max_cycle;Signal;HPM_P1;HPM_P2
2022/05/06 00:02:30;;;;;;;7.18;5.13;;;;;;;9.23;77.75;96458.09;10356744;28;96956;-65
2022/05/06 00:07:33;;;;;;;6.50;4.90;;;;;;;9.18;77.52;96444.63;10358203;28;97213;-65
2022/05/06 00:12:37;;;;;;;7.78;5.65;;;;;;;9.23;77.57;96432.84;10352396;28;98923;-65
2022/05/06 00:17:41;;;;;;;6.03;5.18;;;;;;;9.31;77.36;96437.38;10347898;28;98799;-65
2022/05/06 00:22:44;;;;;;;7.87;5.13;;;;;;;9.36;77.26;96432.56;10341976;28;98819;-65
2022/05/06 00:27:47;;;;;;;6.32;4.80;;;;;;;9.34;77.56;96421.47;10351277;28;97867;-65
2022/05/06 00:32:51;;;;;;;6.80;5.18;;;;;;;9.29;77.63;96423.66;10354599;28;97565;-64
2022/05/06 00:37:54;;;;;;;6.73;5.43;;;;;;;9.27;77.48;96426.38;10354199;28;96941;-65
2022/05/06 00:42:57;;;;;;;8.73;5.10;;;;;;;9.38;77.58;96424.63;10340964;28;96762;-65
2022/05/06 00:48:01;;;;;;;6.60;4.88;;;;;;;9.44;77.67;96422.34;10343444;28;96939;-64
2022/05/06 00:53:06;;;;;;;6.00;5.40;;;;;;;9.47;77.57;96418.63;10347442;28;97222;-65
2022/05/06 00:58:10;;;;;;;7.03;5.28;;;;;;;9.53;78.02;96412.88;10351462;28;97023;-65
2022/05/06 01:03:14;;;;;;;6.28;5.32;;;;;;;9.62;77.49;96406.81;10355302;28;98762;-65
2022/05/06 01:08:17;;;;;;;7.00;5.03;;;;;;;9.67;77.51;96409.84;10352385;28;96939;-65
2022/05/06 01:13:21;;;;;;;6.57;4.32;;;;;;;9.71;77.46;96388.69;10350762;28;97833;-65
2022/05/06 01:18:25;;;;;;;6.22;5.03;;;;;;;9.77;77.07;96394.19;10340929;28;96867;-64
2022/05/06 01:23:29;;;;;;;6.57;5.33;;;;;;;9.75;77.77;96390.91;10339477;28;99122;-64
2022/05/06 01:28:35;;;;;;;7.57;5.53;;;;;;;9.70;77.59;96398.31;10346337;28;96942;-65
2022/05/06 01:33:39;;;;;;;6.15;5.40;;;;;;;9.66;77.55;96389.09;10341418;28;98635;-65
2022/05/06 01:38:49;;;;;;;8.43;5.55;;;;;;;9.59;77.35;96390.63;10349351;28;96787;-65
2022/05/06 01:43:54;;;;;;;6.20;5.25;;;;;;;9.61;77.47;96396.53;10347818;28;96878;-65
2022/05/06 01:48:58;;;;;;;6.80;5.50;;;;;;;9.66;77.41;96394.31;10342261;28;96821;-64
2022/05/06 01:54:03;;;;;;;8.88;6.13;;;;;;;9.73;76.54;96390.22;10336881;28;96748;-65
2022/05/06 01:59:05;;;;;;;7.87;5.37;;;;;;;9.78;76.57;96395.00;10348638;28;97613;-64
2022/05/06 02:09:30;;;;;;;7.45;5.40;;;;;;;9.82;75.92;96392.00;10332291;28;98677;-65
2022/05/06 02:14:33;;;;;;;7.83;5.57;;;;;;;9.85;75.72;96380.44;10339850;28;98286;-65
2022/05/06 02:19:36;;;;;;;7.15;5.18;;;;;;;9.91;75.53;96381.69;10338442;28;98514;-64
2022/05/06 02:24:41;;;;;;;7.13;5.05;;;;;;;9.98;75.32;96385.38;10335753;28;98650;-64
2022/05/06 02:33:12;;;;;;;6.93;5.25;;;;;;;10.02;75.28;96378.91;10335223;28;98507;-65
2022/05/06 02:35:09;;;;;;;5.57;5.03;;;;;;;10.04;74.81;96372.59;10335854;28;97375;-64
2022/05/06 02:40:13;;;;;;;7.30;5.85;;;;;;;10.07;74.54;96371.47;10345086;28;97554;-65
2022/05/06 02:45:16;;;;;;;7.22;5.22;;;;;;;10.12;74.64;96360.63;10339030;28;97522;-65
2022/05/06 02:50:19;;;;;;;8.27;5.75;;;;;;;10.15;74.70;96355.94;10283314;28;1426150;-64
2022/05/06 02:55:24;;;;;;;5.57;4.68;;;;;;;10.16;74.68;96364.56;10343421;28;97699;-65
2022/05/06 03:00:28;;;;;;;7.70;5.43;;;;;;;10.22;74.28;96357.00;10344322;28;100500;-65
2022/05/06 03:05:32;;;;;;;6.38;5.07;;;;;;;10.27;74.59;96358.34;10344427;28;100040;-64
2022/05/06 03:10:36;;;;;;;7.50;5.25;;;;;;;10.28;73.85;96353.00;10338997;28;98510;-64
2022/05/06 03:15:41;;;;;;;6.93;5.47;;;;;;;10.20;74.24;96345.88;10344070;28;97100;-64
2022/05/06 03:20:44;;;;;;;7.65;4.88;;;;;;;10.16;74.22;96341.09;10340984;28;98578;-64
2022/05/06 03:25:48;;;;;;;5.38;4.20;;;;;;;10.16;74.49;96341.91;10346700;28;98495;-64
2022/05/06 03:30:52;;;;;;;7.23;4.40;;;;;;;10.14;74.04;96335.19;10343667;28;96961;-64
2022/05/06 03:35:55;;;;;;;7.38;4.85;;;;;;;10.16;73.82;96334.06;10368187;28;96891;-64
2022/05/06 03:40:59;;;;;;;8.15;4.70;;;;;;;10.09;73.70;96333.00;10352624;28;96925;-64
2022/05/06 03:46:02;;;;;;;5.00;4.33;;;;;;;10.00;74.05;96326.03;10359025;28;97139;-64
2022/05/06 03:56:32;;;;;;;7.25;5.53;;;;;;;9.88;74.11;96333.19;10349933;28;99575;-64
2022/05/06 04:01:35;;;;;;;7.63;4.88;;;;;;;9.82;74.69;96329.38;10344836;28;97215;-64
2022/05/06 04:06:38;;;;;;;5.90;4.93;;;;;;;9.71;74.82;96337.34;10365008;28;97648;-64
2022/05/06 04:11:42;;;;;;;8.23;5.32;;;;;;;9.66;74.94;96334.31;10346364;28;98614;-64
2022/05/06 04:16:45;;;;;;;6.60;4.60;;;;;;;9.69;74.79;96334.06;10340239;28;100892;-64
2022/05/06 04:27:10;;;;;;;6.15;4.20;;;;;;;9.71;75.23;96333.91;10344868;28;98630;-64
2022/05/06 04:32:15;;;;;;;6.17;4.77;;;;;;;9.70;74.82;96337.47;10342191;28;100657;-64
2022/05/06 04:37:20;;;;;;;7.00;4.35;;;;;;;9.65;75.10;96337.91;10346438;28;96930;-65
2022/05/06 04:42:24;;;;;;;6.10;4.38;;;;;;;9.70;75.36;96343.53;10350531;28;97060;-65
2022/05/06 04:47:27;;;;;;;9.03;5.70;;;;;;;9.72;75.31;96341.59;10342648;28;97033;-65
2022/05/06 04:52:30;;;;;;;7.53;5.50;;;;;;;9.76;74.83;96345.56;10348581;28;98210;-65
2022/05/06 04:57:34;;;;;;;5.93;4.75;;;;;;;9.73;75.52;96345.88;10345229;28;96936;-64
2022/05/06 05:02:37;;;;;;;7.30;5.13;;;;;;;9.68;75.74;96342.84;10350590;28;97826;-64
2022/05/06 05:07:40;;;;;;;6.05;4.82;;;;;;;9.75;75.10;96340.50;10354558;28;96717;-65
2022/05/06 05:12:45;;;;;;;6.47;3.75;;;;;;;9.85;75.33;96339.53;10360986;28;97135;-64
2022/05/06 05:17:48;;;;;;;4.10;3.47;;;;;;;9.94;74.61;96329.19;10363987;28;100824;-64
2022/05/06 05:22:51;;;;;;;5.25;3.65;;;;;;;10.03;74.74;96337.00;10352043;28;97073;-64
2022/05/06 05:27:55;;;;;;;5.85;4.10;;;;;;;10.12;74.27;96340.56;10348180;28;96913;-64
2022/05/06 05:32:58;;;;;;;7.10;4.38;;;;;;;10.28;74.27;96333.91;10342245;28;97817;-65
2022/05/06 05:38:01;;;;;;;6.43;5.05;;;;;;;10.38;74.39;96340.72;10343650;28;97721;-64
2022/05/06 05:48:19;;;;;;;7.78;5.00;;;;;;;10.51;73.99;96344.78;10358792;28;98473;-64
2022/05/06 05:48:30;;;;;;;6.13;4.93;;;;;;;10.62;73.62;96347.22;10349676;28;101912;-64
2022/05/06 05:53:33;;;;;;;7.80;5.13;;;;;;;10.76;73.04;96343.31;10340223;28;100705;-64
2022/05/06 05:58:37;;;;;;;9.98;6.10;;;;;;;10.85;73.34;96342.41;10338407;28;97058;-64
2022/05/06 06:03:40;;;;;;;7.50;5.17;;;;;;;10.96;73.17;96334.38;10347229;28;97534;-65
2022/05/06 06:08:43;;;;;;;6.93;5.60;;;;;;;11.20;73.16;96340.81;10355724;28;96848;-65
2022/05/06 06:13:48;;;;;;;6.05;5.03;;;;;;;11.36;72.78;96350.63;10333968;28;97059;-65
2022/05/06 06:18:50;;;;;;;7.07;5.10;;;;;;;11.51;72.74;96349.13;10347372;28;96936;-65
2022/05/06 06:23:54;;;;;;;8.55;6.10;;;;;;;11.66;72.15;96344.19;10339799;28;97234;-65
2022/05/06 06:28:58;;;;;;;8.57;5.60;;;;;;;11.89;71.76;96346.31;10343093;28;98397;-65
2022/05/06 06:34:01;;;;;;;6.13;4.97;;;;;;;11.97;71.54;96356.84;10359821;28;98924;-72
2022/05/06 06:39:04;;;;;;;7.47;5.80;;;;;;;12.02;71.97;96357.19;10350056;28;98435;-73
2022/05/06 06:44:08;;;;;;;6.18;5.50;;;;;;;12.02;71.97;96356.38;10337827;28;96834;-72
2022/05/06 06:49:11;;;;;;;8.27;5.77;;;;;;;12.08;72.23;96356.56;10335761;28;101477;-73
2022/05/06 06:54:14;;;;;;;7.97;5.80;;;;;;;12.23;71.88;96348.97;10356573;28;96993;-72
2022/05/06 06:59:18;;;;;;;6.25;4.38;;;;;;;12.28;70.87;96348.50;10338608;28;96934;-72
2022/05/06 07:04:22;;;;;;;4.13;3.73;;;;;;;12.26;70.21;96350.47;10339758;28;96879;-72
2022/05/06 07:14:46;;;;;;;6.35;4.05;;;;;;;12.44;70.19;96345.97;10340806;28;97013;-72
2022/05/06 07:19:50;;;;;;;4.53;2.50;;;;;;;12.50;69.21;96347.94;10346996;28;97128;-72
2022/05/06 07:24:53;;;;;;;3.95;2.28;;;;;;;12.53;69.11;96353.84;10340859;28;96956;-72
2022/05/06 07:29:57;;;;;;;1.95;1.40;;;;;;;12.44;68.00;96330.25;10341252;28;96787;-72
2022/05/06 07:35:01;;;;;;;2.45;1.17;;;;;;;12.52;67.88;96350.41;10336919;28;97010;-72
2022/05/06 07:40:05;;;;;;;2.03;1.30;;;;;;;12.63;67.54;96346.69;10340040;28;96724;-72
2022/05/06 07:45:11;;;;;;;2.75;1.30;;;;;;;12.74;67.48;96356.09;10342963;28;96916;-72
2022/05/06 07:50:14;;;;;;;2.38;1.15;;;;;;;12.96;67.60;96349.47;10335607;28;96943;-72
2022/05/06 07:55:19;;;;;;;1.98;0.80;;;;;;;12.98;66.29;96339.66;10339290;28;96798;-72
2022/05/06 08:00:24;;;;;;;2.05;1.00;;;;;;;13.03;66.27;96350.44;10346502;28;96825;-72
2022/05/06 08:05:28;;;;;;;1.65;0.60;;;;;;;13.21;65.69;96347.72;10345105;28;97357;-73
2022/05/06 08:10:31;;;;;;;1.45;1.17;;;;;;;13.44;65.25;96343.47;10360083;28;96918;-73
2022/05/06 08:15:36;;;;;;;1.10;1.00;;;;;;;13.58;66.02;96349.88;10346096;28;97013;-72
2022/05/06 08:20:39;;;;;;;;;;;;;;;13.67;65.20;96336.75;10346396;28;97287;-73
2022/05/06 08:25:43;;;;;;;1.77;0.85;;;;;;;13.87;65.26;96356.44;10359593;28;96709;-73
2022/05/06 08:30:48;;;;;;;1.63;1.00;;;;;;;13.96;64.70;96342.31;10346382;28;96845;-73
2022/05/06 08:35:51;;;;;;;;;;;;;;;13.99;65.00;96347.25;10365009;28;100182;-73
2022/05/06 08:40:55;;;;;;;1.88;0.60;;;;;;;13.92;63.61;96341.00;10356452;28;97290;-73
2022/05/06 08:51:22;;;;;;;0.50;0.50;;;;;;;13.94;63.38;96339.03;10354630;28;98089;-73
2022/05/06 08:56:25;;;;;;;1.58;0.63;;;;;;;14.03;62.27;96336.41;10353846;28;98085;-73
2022/05/06 09:01:30;;;;;;;1.05;0.60;;;;;;;13.87;63.39;96332.00;10342573;28;99868;-73
2022/05/06 09:06:34;;;;;;;2.08;0.45;;;;;;;14.02;63.33;96337.38;10345684;28;97914;-73
2022/05/06 09:17:01;;;;;;;0.80;0.57;;;;;;;14.64;61.56;96334.94;10357132;28;98584;-73
2022/05/06 09:22:06;;;;;;;1.52;0.63;;;;;;;14.71;61.66;96349.06;10344147;28;97699;-73
2022/05/06 09:27:13;;;;;;;0.55;0.50;;;;;;;14.90;61.25;96323.31;10348878;28;96889;-73
2022/05/06 09:32:19;;;;;;;1.85;0.68;;;;;;;14.94;61.26;96340.41;10351443;28;96865;-73
2022/05/06 09:37:41;;;;;;;1.95;0.77;;;;;;;14.92;59.82;96347.63;10355526;28;96680;-72
2022/05/06 09:42:46;;;;;;;1.17;0.63;;;;;;;14.87;60.65;96348.16;10363732;28;96994;-72
2022/05/06 09:47:57;;;;;;;;;;;;;;;14.95;61.25;96352.56;10351296;28;97511;-72
2022/05/06 09:53:01;;;;;;;0.98;0.65;;;;;;;15.09;60.43;96361.53;10345548;28;99855;-72
2022/05/06 09:58:05;;;;;;;1.03;0.87;;;;;;;15.13;60.39;96365.47;10342692;28;97333;-72
2022/05/06 10:03:10;;;;;;;2.15;0.80;;;;;;;15.25;59.73;96365.88;10343650;28;96892;-72
2022/05/06 10:08:16;;;;;;;1.27;0.77;;;;;;;15.37;58.47;96367.09;10355479;28;96904;-72
2022/05/06 10:13:22;;;;;;;2.42;0.70;;;;;;;15.53;57.51;96363.56;10365763;28;97160;-72
2022/05/06 10:18:33;;;;;;;1.08;0.70;;;;;;;15.60;56.91;96363.69;10366023;28;96730;-71
2022/05/06 10:23:47;;;;;;;3.10;0.80;;;;;;;15.88;56.57;96375.31;10357609;28;96859;-72
2022/05/06 10:34:14;;;;;;;1.75;0.90;;;;;;;16.35;56.25;96364.69;10348317;28;97572;-71
2022/05/06 10:39:20;;;;;;;0.98;0.85;;;;;;;16.46;56.48;96366.88;10367374;28;96773;-71
2022/05/06 10:44:38;;;;;;;2.45;1.00;;;;;;;16.20;55.33;96367.31;10367868;28;97987;-71
2022/05/06 10:49:52;;;;;;;4.43;1.30;;;;;;;16.04;55.59;96365.66;10369698;28;96827;-71
2022/05/06 10:54:59;;;;;;;1.40;0.93;;;;;;;16.33;56.54;96353.50;10369979;28;97037;-71
2022/05/06 11:00:06;;;;;;;1.10;0.70;;;;;;;16.55;55.76;96349.94;10362131;28;96825;-71
2022/05/06 11:05:14;;;;;;;0.82;0.82;;;;;;;16.51;54.82;96364.50;10345596;28;96922;-71
2022/05/06 11:10:18;;;;;;;0.73;0.70;;;;;;;16.60;54.89;96363.41;10353084;28;96827;-72
2022/05/06 11:15:23;;;;;;;1.50;0.80;;;;;;;16.41;54.41;96353.41;10343583;28;97056;-71
2022/05/06 11:20:29;;;;;;;5.38;0.80;;;;;;;16.37;54.77;96368.78;10343843;28;97188;-72
2022/05/06 11:25:34;;;;;;;1.17;0.85;;;;;;;16.66;55.03;96358.41;10336808;28;97082;-71
2022/05/06 11:30:37;;;;;;;1.70;1.00;;;;;;;16.79;54.29;96361.25;10342262;28;96816;-71
2022/05/06 11:35:49;;;;;;;1.70;0.93;;;;;;;17.29;53.94;96354.31;10347554;28;96838;-72
2022/05/06 11:40:52;;;;;;;1.98;1.15;;;;;;;17.10;52.60;96361.03;10343534;28;96929;-72
2022/05/06 11:51:21;;;;;;;2.47;1.10;;;;;;;17.16;53.21;96375.28;10347606;28;96923;-71
2022/05/06 11:56:26;;;;;;;2.88;1.85;;;;;;;17.23;52.84;96362.16;10344310;28;97143;-72
2022/05/06 12:01:30;;;;;;;6.10;1.48;;;;;;;16.96;53.96;96367.97;10345495;28;99868;-72
2022/05/06 12:06:37;;;;;;;1.88;1.17;;;;;;;17.08;52.40;96359.59;10347546;28;96969;-72
2022/05/06 12:11:42;;;;;;;1.98;1.55;;;;;;;17.07;54.24;96369.31;10346114;28;96707;-72
2022/05/06 12:16:55;;;;;;;2.50;1.90;;;;;;;16.76;53.49;96364.25;10341902;28;96738;-72
2022/05/06 12:22:05;;;;;;;4.80;2.00;;;;;;;16.56;54.23;96356.06;10346097;28;99509;-73
2022/05/06 12:27:08;;;;;;;2.28;1.38;;;;;;;16.68;54.16;96373.06;10346613;28;96888;-72
2022/05/06 12:32:12;;;;;;;2.05;1.65;;;;;;;17.13;53.46;96363.28;10358578;28;99755;-72
2022/05/06 12:37:18;;;;;;;1.90;1.40;;;;;;;17.29;54.52;96362.25;10357002;28;98316;-72
2022/05/06 12:42:21;;;;;;;1.77;1.38;;;;;;;17.24;53.45;96342.69;10345536;28;96758;-72
2022/05/06 12:53:06;;;;;;;1.42;1.17;;;;;;;17.50;53.57;96360.63;10341805;28;96837;-72
2022/05/06 12:58:10;;;;;;;3.58;1.83;;;;;;;17.35;52.44;96377.34;10346232;28;96836;-72
2022/05/06 13:03:13;;;;;;;4.50;2.13;;;;;;;17.15;52.89;96360.47;10345674;28;97941;-72
2022/05/06 13:08:18;;;;;;;3.25;2.40;;;;;;;16.91;53.63;96377.44;10339552;28;98005;-72
2022/05/06 13:13:20;;;;;;;4.47;2.90;;;;;;;17.05;53.35;96375.78;10353693;28;96797;-72
2022/05/06 13:18:24;;;;;;;4.05;2.70;;;;;;;16.84;53.13;96369.44;10344870;28;96734;-72
2022/05/06 13:23:28;;;;;;;2.53;2.13;;;;;;;16.79;53.35;96382.34;10342689;28;96944;-72
2022/05/06 13:28:31;;;;;;;2.28;2.08;;;;;;;17.22;53.98;96389.59;10341645;28;96853;-71
2022/05/06 13:33:35;;;;;;;2.80;2.50;;;;;;;17.40;53.30;96373.31;10352266;28;97068;-72
2022/05/06 13:38:40;;;;;;;3.73;2.87;;;;;;;16.91;53.97;96378.25;10350966;28;96764;-72
2022/05/06 13:43:42;;;;;;;6.03;3.35;;;;;;;16.88;53.20;96378.59;10341968;28;96758;-72
2022/05/06 13:48:46;;;;;;;5.47;3.17;;;;;;;17.17;52.96;96387.50;10344140;28;96877;-71
2022/05/06 13:53:50;;;;;;;5.50;3.55;;;;;;;17.11;52.71;96385.59;10342219;28;97351;-71
2022/05/06 13:59:05;;;;;;;4.88;3.63;;;;;;;17.15;53.05;96392.16;10340177;28;99840;-71
2022/05/06 14:04:10;;;;;;;6.25;4.72;;;;;;;17.31;52.72;96391.91;10342675;28;97234;-72
2022/05/06 14:09:14;;;;;;;5.50;5.00;;;;;;;16.95;54.12;96392.72;10363158;28;96985;-73
2022/05/06 14:14:17;;;;;;;6.03;4.70;;;;;;;17.01;53.79;96391.16;10355349;28;96839;-72
2022/05/06 14:19:20;;;;;;;5.88;4.88;;;;;;;17.25;53.14;96397.94;10340622;28;96798;-72
2022/05/06 14:24:24;;;;;;;5.35;4.78;;;;;;;17.15;53.28;96363.13;10342839;28;96789;-72
2022/05/06 14:29:27;;;;;;;5.93;4.35;;;;;;;16.98;52.60;96378.34;10340759;28;96930;-72
2022/05/06 14:34:31;;;;;;;5.22;4.40;;;;;;;17.38;51.75;96376.16;10339927;28;96858;-73
2022/05/06 14:39:37;;;;;;;4.72;4.10;;;;;;;18.32;51.26;96377.81;10343066;28;96964;-73
2022/05/06 14:44:40;;;;;;;4.85;3.72;;;;;;;18.44;50.89;96378.09;10341825;28;96805;-71
2022/05/06 14:49:43;;;;;;;6.78;4.65;;;;;;;18.41;50.30;96381.13;10351968;28;96710;-71
2022/05/06 14:54:47;;;;;;;6.55;4.85;;;;;;;18.34;50.78;96388.19;10358507;28;96853;-71
2022/05/06 14:59:50;;;;;;;5.10;4.60;;;;;;;18.34;50.18;96375.78;10341710;28;97164;-71
2022/05/06 15:04:53;;;;;;;5.80;4.72;;;;;;;18.85;49.95;96372.84;10354123;28;96930;-71
2022/05/06 15:09:58;;;;;;;5.50;5.00;;;;;;;19.42;49.22;96372.66;10348081;28;96988;-71
2022/05/06 15:15:00;;;;;;;5.20;4.50;;;;;;;19.34;49.05;96378.13;10359199;28;96720;-71
2022/05/06 15:20:06;;;;;;;5.82;5.22;;;;;;;18.90;49.08;96363.50;10344405;28;97115;-71
2022/05/06 15:25:13;;;;;;;5.50;5.00;;;;;;;18.47;49.83;96386.47;10348550;28;96728;-71
2022/05/06 15:30:15;;;;;;;6.63;5.88;;;;;;;17.97;50.39;96383.03;10348942;28;97059;-71
2022/05/06 15:35:18;;;;;;;6.03;5.43;;;;;;;17.46;50.78;96369.94;10360698;28;97169;-71
2022/05/06 15:40:23;;;;;;;7.30;6.50;;;;;;;17.19;52.17;96375.72;10350633;28;96891;-71
2022/05/06 15:45:26;;;;;;;6.88;6.18;;;;;;;17.14;52.13;96386.06;10356207;28;97317;-71
2022/05/06 15:50:30;;;;;;;6.85;5.95;;;;;;;17.02;52.83;96387.50;10381311;28;97336;-71
2022/05/06 15:55:34;;;;;;;6.68;5.85;;;;;;;16.65;53.33;96380.53;10365588;28;96930;-71
2022/05/06 16:00:37;;;;;;;6.43;5.38;;;;;;;16.36;53.45;96390.88;10348067;28;98507;-71
2022/05/06 16:05:40;;;;;;;6.05;5.35;;;;;;;16.12;53.45;96397.19;10346517;28;96733;-71
2022/05/06 16:10:44;;;;;;;6.75;5.72;;;;;;;16.10;54.07;96387.81;10346615;28;96676;-71
2022/05/06 16:15:47;;;;;;;6.82;5.50;;;;;;;15.86;54.19;96398.41;10355037;28;101042;-75
2022/05/06 16:20:50;;;;;;;6.18;5.57;;;;;;;15.71;54.72;96409.88;10362899;28;97311;-74
2022/05/06 16:25:55;;;;;;;7.68;6.25;;;;;;;15.64;55.66;96396.59;10366894;28;97530;-74
2022/05/06 16:30:58;;;;;;;9.15;6.40;;;;;;;15.47;55.42;96387.94;10355641;28;99433;-71
2022/05/06 16:41:22;;;;;;;7.20;6.32;;;;;;;15.34;56.28;96398.22;10351945;28;97268;-76
2022/05/06 16:46:25;;;;;;;7.63;6.32;;;;;;;15.29;56.28;96396.13;10346675;28;99113;-82
2022/05/06 16:51:29;;;;;;;7.43;6.03;;;;;;;15.23;56.41;96409.97;10354548;28;98779;-66
2022/05/06 16:56:33;;;;;;;7.50;6.73;;;;;;;15.15;56.16;96394.22;10353530;28;97036;-78
2022/05/06 17:01:36;;;;;;;6.97;6.20;;;;;;;15.20;55.94;96397.16;10351882;28;97157;-66
2022/05/06 17:06:40;;;;;;;9.57;7.30;;;;;;;15.28;56.22;96405.00;10345763;28;97687;-75
2022/05/06 17:11:46;;;;;;;7.28;6.53;;;;;;;15.12;56.99;96401.47;10345646;28;99039;-75
2022/05/06 17:16:49;;;;;;;6.97;6.28;;;;;;;15.06;57.01;96404.78;10352283;28;99355;-78
2022/05/06 17:21:52;;;;;;;8.45;6.30;;;;;;;15.08;56.95;96405.44;10357114;28;103691;-75
2022/05/06 17:26:56;;;;;;;7.70;6.60;;;;;;;15.12;57.49;96404.09;10350254;28;98985;-71
2022/05/06 17:32:00;;;;;;;7.20;6.50;;;;;;;15.11;57.37;96405.09;10338320;28;98798;-69
2022/05/06 17:37:04;;;;;;;6.72;6.00;;;;;;;15.04;58.17;96413.84;10343013;28;99258;-69
2022/05/06 17:42:09;;;;;;;7.17;6.07;;;;;;;14.94;57.44;96409.63;10348450;28;96774;-68
2022/05/06 17:47:12;;;;;;;7.05;6.35;;;;;;;15.00;57.65;96397.56;10351711;28;97587;-81
2022/05/06 17:52:16;;;;;;;7.40;5.32;;;;;;;15.99;54.93;96386.44;10340484;28;97343;-84
2022/05/06 17:57:21;;;;;;;5.53;4.95;;;;;;;16.38;53.61;96337.94;10353491;28;98349;-82
2022/05/06 18:02:24;;;;;;;;;;;;;;;17.15;52.46;96406.16;10353378;28;96790;-82
2022/05/06 18:07:27;;;;;;;6.07;5.13;;;;;;;17.32;51.74;96390.91;10360812;28;96859;-82
2022/05/06 18:12:32;;;;;;;7.37;5.03;;;;;;;17.26;52.05;96367.88;10354444;28;96976;-82
2022/05/06 18:17:35;;;;;;;7.05;5.47;;;;;;;17.35;51.57;96365.94;10341743;28;97704;-83
2022/05/06 18:22:38;;;;;;;6.35;4.88;;;;;;;17.52;50.97;96392.94;10363042;28;96772;-82
2022/05/06 18:27:43;;;;;;;6.63;5.22;;;;;;;17.65;50.86;96406.31;10345370;28;96789;-83
2022/05/06 18:38:12;;;;;;;7.95;5.65;;;;;;;16.20;54.66;96422.66;10353321;28;97334;-66
2022/05/06 18:43:16;;;;;;;7.55;5.30;;;;;;;15.50;55.75;96425.28;10344046;28;99109;-66
2022/05/06 18:48:20;;;;;;;5.90;5.30;;;;;;;15.08;57.45;96426.50;10344350;28;101680;-66
2022/05/06 18:53:25;;;;;;;6.40;5.45;;;;;;;14.90;57.30;96436.41;10340898;28;96719;-66
2022/05/06 18:58:29;;;;;;;6.50;5.67;;;;;;;14.65;57.50;96436.50;10342649;28;97082;-66
2022/05/06 19:03:32;;;;;;;6.43;5.27;;;;;;;14.48;57.31;96438.34;10336935;28;96963;-66
2022/05/06 19:08:35;;;;;;;7.65;6.22;;;;;;;14.36;57.71;96445.75;10338491;28;97016;-66
2022/05/06 19:13:40;;;;;;;8.85;7.80;;;;;;;14.30;58.63;96453.47;10357029;28;97893;-66
2022/05/06 19:18:43;;;;;;;9.45;7.00;;;;;;;14.17;59.26;96459.19;10347484;28;99500;-66
2022/05/06 19:29:08;;;;;;;9.30;7.10;;;;;;;14.05;59.49;96471.03;10344997;28;98672;-65
2022/05/06 19:34:11;;;;;;;10.40;7.60;;;;;;;13.95;60.40;96456.25;10344371;28;98718;-66
2022/05/06 19:39:14;;;;;;;8.55;6.95;;;;;;;13.94;60.08;96454.59;10346413;28;97542;-67
2022/05/06 19:44:21;;;;;;;7.68;6.25;;;;;;;13.91;59.82;96454.09;10340010;28;97693;-66
2022/05/06 19:49:26;;;;;;;9.77;7.30;;;;;;;13.91;59.97;96454.91;10335275;28;97239;-66
2022/05/06 19:54:29;;;;;;;7.85;6.40;;;;;;;13.83;60.60;96465.44;10347972;28;99407;-66
2022/05/06 19:59:34;;;;;;;10.57;7.38;;;;;;;13.72;61.24;96465.72;10359593;28;104788;-66
2022/05/06 20:04:37;;;;;;;7.70;6.80;;;;;;;13.60;61.14;96467.84;10352332;28;97339;-65
2022/05/06 20:09:40;;;;;;;9.27;7.00;;;;;;;13.48;61.50;96480.47;10364953;28;99947;-66
2022/05/06 20:14:45;;;;;;;10.32;7.15;;;;;;;13.41;62.31;96471.56;10349624;28;98626;-66
2022/05/06 20:19:48;;;;;;;9.07;7.60;;;;;;;13.35;61.73;96480.09;10353418;28;96981;-66
2022/05/06 20:24:51;;;;;;;10.00;7.40;;;;;;;13.39;62.03;96481.41;10356521;28;96917;-66
2022/05/06 20:29:55;;;;;;;8.68;7.10;;;;;;;13.37;61.38;96486.00;10348558;28;98298;-66
2022/05/06 20:34:58;;;;;;;;;;;;;;;13.36;60.92;96490.44;10357439;28;96855;-66
2022/05/06 20:40:02;;;;;;;8.27;6.60;;;;;;;13.39;61.63;96486.66;10352211;28;96861;-66
2022/05/06 20:45:09;;;;;;;7.65;5.93;;;;;;;13.28;61.83;96484.31;10348226;28;97117;-66
2022/05/06 20:50:13;;;;;;;10.27;5.88;;;;;;;13.26;61.76;96489.72;10348579;28;97116;-66
2022/05/06 20:55:16;;;;;;;6.03;5.28;;;;;;;13.30;61.49;96493.66;10349030;28;98906;-67
2022/05/06 21:00:22;;;;;;;4.53;3.90;;;;;;;13.34;60.63;96483.69;10346883;28;96854;-66
2022/05/06 21:05:25;;;;;;;8.77;4.25;;;;;;;13.35;60.43;96477.47;10343670;28;96947;-66
2022/05/06 21:15:50;;;;;;;5.47;3.80;;;;;;;13.40;60.93;96472.56;10350515;28;96914;-66
2022/05/06 21:20:53;;;;;;;5.67;3.67;;;;;;;13.44;60.84;96487.00;10347168;28;97963;-66
2022/05/06 21:25:57;;;;;;;3.83;3.47;;;;;;;13.48;60.44;96471.75;10360958;28;101711;-65
2022/05/06 21:31:03;;;;;;;4.23;3.63;;;;;;;13.50;59.93;96465.38;10339536;28;101297;-66
2022/05/06 21:36:07;;;;;;;4.80;2.83;;;;;;;13.49;59.74;96470.78;10347631;28;96742;-66
2022/05/06 21:41:10;;;;;;;3.38;3.08;;;;;;;13.50;59.82;96465.38;10360156;28;97567;-69
2022/05/06 21:46:15;;;;;;;3.63;3.10;;;;;;;13.52;59.71;96465.22;10351997;28;98924;-69
2022/05/06 21:51:18;;;;;;;4.25;3.10;;;;;;;13.51;59.75;96468.81;10347367;28;96883;-69
2022/05/06 21:56:21;;;;;;;3.47;2.80;;;;;;;13.51;59.98;96472.25;10345522;28;96882;-68
2022/05/06 22:01:25;;;;;;;3.47;3.17;;;;;;;13.45;60.41;96480.78;10349325;28;98564;-68
2022/05/06 22:06:28;;;;;;;4.13;3.73;;;;;;;13.36;59.95;96481.72;10355687;28;98229;-69
2022/05/06 22:11:31;;;;;;;3.78;3.25;;;;;;;13.29;60.09;96485.94;10357885;28;97831;-68
2022/05/06 22:16:36;;;;;;;4.53;4.05;;;;;;;13.16;60.38;96476.72;10348301;28;97416;-68
2022/05/06 22:21:39;;;;;;;4.88;4.10;;;;;;;13.02;60.82;96472.09;10357998;28;97744;-68
2022/05/06 22:26:42;;;;;;;4.43;3.95;;;;;;;12.87;61.27;96461.31;10364999;28;96730;-68
2022/05/06 22:31:46;;;;;;;5.65;4.55;;;;;;;12.84;61.59;96467.72;10352561;28;96716;-68
2022/05/06 22:36:49;;;;;;;6.17;4.80;;;;;;;12.77;61.63;96465.84;10367881;28;96986;-68
2022/05/06 22:47:14;;;;;;;5.70;4.93;;;;;;;12.59;62.39;96460.69;10337803;28;97392;-68
2022/05/06 22:52:17;;;;;;;4.90;4.40;;;;;;;12.55;62.47;96467.22;10339758;28;98665;-68
2022/05/06 22:57:20;;;;;;;4.82;4.13;;;;;;;12.47;62.79;96460.97;10338650;28;97104;-68
2022/05/06 23:02:24;;;;;;;6.30;4.38;;;;;;;12.45;62.74;96457.66;10338038;28;96875;-68
2022/05/06 23:07:27;;;;;;;6.83;4.67;;;;;;;12.46;62.63;96454.06;10353483;28;102861;-69
2022/05/06 23:12:30;;;;;;;6.28;4.88;;;;;;;12.48;62.45;96441.63;10338087;28;100376;-70
2022/05/06 23:17:34;;;;;;;7.93;5.75;;;;;;;12.47;63.01;96445.25;10337543;28;101157;-68
2022/05/06 23:22:37;;;;;;;9.07;5.57;;;;;;;12.48;62.75;96448.66;10350018;28;98568;-68
2022/05/06 23:27:40;;;;;;;7.80;6.47;;;;;;;12.43;62.97;96449.13;10337339;28;97838;-68
2022/05/06 23:32:44;;;;;;;8.02;7.22;;;;;;;12.39;63.36;96453.03;10347366;28;98731;-68
2022/05/06 23:37:47;;;;;;;7.70;6.87;;;;;;;12.37;63.51;96444.50;10349916;28;100246;-68
2022/05/06 23:42:50;;;;;;;9.73;7.43;;;;;;;12.34;63.62;96447.44;10351915;28;98869;-68
2022/05/06 23:47:54;;;;;;;8.13;6.78;;;;;;;12.33;63.93;96443.16;10339729;28;98581;-68
2022/05/06 23:52:57;;;;;;;10.47;7.43;;;;;;;12.33;63.98;96447.59;10356950;28;97032;-69
2022/05/06 23:58:00;;;;;;;10.73;6.88;;;;;;;12.33;64.11;96443.16;10348936;28;97345;-68
